Madeline — WDE3220 — position and weather

sailwx.info

Track history (hours):
 
Tides and Currents Weather Stations Pressure Air Temp Water Temp Dewpoint Dewpoint Depression Visibility Wind Speed Wind Dir Waves Ship Positions

Madeline

Owner: TUG MADELINE, LLC, NEW CASTLE, DE. More information available from US FCC via Universal Licensing System and Coast Guard Vessel Documentation Center.

Last reported at 2016-Aug-29 08:33 UTC. Time now 2016-Aug-29 08:53 UTC.
Position N 39°51' W 075°16'.

; draft 4.6 m.

Type: Tug. MMSI: 367335830.

Date/timePositionNaut miles runAvg speedWind from/ knotsBaromVisibWave heightAir tempDewpointWater temp
2016-Aug-29 08:33N 39°51' W 075°16'0 0.0
2016-Aug-29 07:33N 39°51' W 075°16'0 0.0
2016-Aug-29 06:33N 39°51' W 075°16'0 0.0
2016-Aug-29 05:33N 39°51' W 075°16'0 0.0
2016-Aug-29 04:33N 39°51' W 075°16'2 2.4
2016-Aug-29 03:33N 39°52' W 075°13'0 0.0
2016-Aug-29 02:33N 39°52' W 075°13'2 2.4
2016-Aug-29 01:33N 39°51' W 075°16'0 0.0
2016-Aug-29 00:33N 39°51' W 075°16'0 0.0
2016-Aug-28 23:33N 39°51' W 075°16'0 0.0
2016-Aug-28 22:33N 39°51' W 075°16'0 0.0
2016-Aug-28 21:33N 39°51' W 075°16'0 0.0
2016-Aug-28 20:33N 39°51' W 075°16'0 0.0
2016-Aug-28 19:33N 39°51' W 075°16'0 0.0
2016-Aug-28 18:33N 39°51' W 075°16'0 0.0
2016-Aug-28 17:33N 39°51' W 075°16'0 0.3
2016-Aug-28 16:33N 39°51' W 075°16'3 2.7
2016-Aug-28 15:33N 39°51' W 075°20'3 3.0
2016-Aug-28 14:33N 39°51' W 075°16'0 0.0
2016-Aug-28 13:33N 39°51' W 075°16'4 4.3
2016-Aug-28 12:33N 39°55' W 075°13'1 1.2
2016-Aug-28 11:34N 39°54' W 075°12'1 0.8
2016-Aug-28 10:33N 39°53' W 075°11'0 0.0
2016-Aug-28 09:33N 39°53' W 075°11'0 0.0
2016-Aug-28 08:33N 39°53' W 075°11'0 0.0
2016-Aug-28 07:33N 39°53' W 075°11'0 0.0
2016-Aug-28 06:33N 39°53' W 075°11'0 0.0
2016-Aug-28 05:33N 39°53' W 075°11'0 0.0
2016-Aug-28 04:33N 39°53' W 075°11'0 0.0
2016-Aug-28 03:33N 39°53' W 075°11'0 0.0
2016-Aug-28 02:34N 39°53' W 075°11'0 0.1
2016-Aug-28 01:33N 39°53' W 075°11'3 2.5
2016-Aug-28 00:33N 39°54' W 075°08'2 2.1
2016-Aug-27 23:33N 39°53' W 075°10'1 1.3
2016-Aug-27 22:33N 39°53' W 075°08'2 2.0
2016-Aug-27 21:33N 39°53' W 075°11'0 0.0
2016-Aug-27 20:33N 39°53' W 075°11'0 0.0
2016-Aug-27 19:33N 39°53' W 075°11'0 0.0
2016-Aug-27 18:33N 39°53' W 075°11'0 0.5
2016-Aug-27 17:33N 39°53' W 075°12'4 4.0
2016-Aug-27 16:33N 39°51' W 075°16'0 0.3
2016-Aug-27 15:33N 39°51' W 075°16'0 0.0
2016-Aug-27 14:33N 39°51' W 075°16'0 0.0
2016-Aug-27 13:33N 39°51' W 075°16'0 0.0
2016-Aug-27 12:33N 39°51' W 075°16'0 0.0
2016-Aug-27 11:33N 39°51' W 075°16'0 0.0
2016-Aug-27 10:33N 39°51' W 075°16'0 0.0
2016-Aug-27 09:33N 39°51' W 075°16'0 0.0
2016-Aug-27 08:33N 39°51' W 075°16'0 0.0
2016-Aug-27 07:33N 39°51' W 075°16'0 0.0
2016-Aug-27 06:33N 39°51' W 075°16'3 1.5
2016-Aug-27 04:33N 39°52' W 075°12'1 1.2
2016-Aug-27 03:33N 39°53' W 075°11'0 0.0
2016-Aug-27 02:33N 39°53' W 075°11'0 0.0
2016-Aug-27 01:33N 39°53' W 075°11'0 0.0
2016-Aug-27 00:33N 39°53' W 075°11'0 0.0
2016-Aug-26 23:33N 39°53' W 075°11'0 0.0
2016-Aug-26 22:33N 39°53' W 075°11'0 0.0
2016-Aug-26 21:33N 39°53' W 075°11'0 0.0
2016-Aug-26 20:33N 39°53' W 075°11'0 0.0
2016-Aug-26 19:33N 39°53' W 075°11'0 0.0
2016-Aug-26 18:33N 39°53' W 075°11'0 0.1
2016-Aug-26 17:33N 39°53' W 075°11'0 0.0
2016-Aug-26 16:34N 39°53' W 075°11'0 0.1
2016-Aug-26 15:33N 39°53' W 075°11'1 1.4
2016-Aug-26 14:33N 39°54' W 075°12'1 1.2
2016-Aug-26 13:33N 39°53' W 075°11'0 0.0
2016-Aug-26 12:33N 39°53' W 075°11'0 0.0
2016-Aug-26 11:33N 39°53' W 075°11'0 0.0
2016-Aug-26 10:33N 39°53' W 075°11'0 0.0
2016-Aug-26 09:33N 39°53' W 075°11'0 0.0
2016-Aug-26 08:33N 39°53' W 075°11'0 0.0
2016-Aug-26 07:33N 39°53' W 075°11'0 0.0
2016-Aug-26 06:33N 39°53' W 075°11'0 0.0
2016-Aug-26 04:33N 39°53' W 075°11'0 0.0
2016-Aug-26 03:33N 39°53' W 075°11'0 0.0
2016-Aug-26 02:33N 39°53' W 075°11'0 0.0
2016-Aug-26 01:33N 39°53' W 075°11'0 0.0
2016-Aug-26 00:33N 39°53' W 075°11'0 0.0
2016-Aug-25 23:34N 39°53' W 075°11'0 0.0
2016-Aug-25 22:33N 39°53' W 075°11'0 0.1
2016-Aug-25 21:33N 39°53' W 075°11'3 3.2
2016-Aug-25 20:33N 39°55' W 075°08'4 3.9
2016-Aug-25 19:33N 39°59' W 075°06'0 0.1
2016-Aug-25 18:33N 39°59' W 075°05'0 0.0
2016-Aug-25 17:33N 39°59' W 075°05'0 0.0
2016-Aug-25 16:33N 39°59' W 075°05'0 0.0
2016-Aug-25 15:33N 39°59' W 075°05'0 0.0
2016-Aug-25 14:33N 39°59' W 075°05'1 1.3
2016-Aug-25 13:33N 39°58' W 075°07'6 6.0
2016-Aug-25 12:34N 39°54' W 075°12'0 0.3
2016-Aug-25 11:33N 39°54' W 075°12'1 0.8
2016-Aug-25 10:33N 39°53' W 075°11'0 0.0
2016-Aug-25 09:33N 39°53' W 075°11'0 0.0
2016-Aug-25 08:33N 39°53' W 075°11'0 0.1
2016-Aug-25 07:34N 39°53' W 075°11'0 0.1
2016-Aug-25 06:33N 39°53' W 075°11'0 0.0
2016-Aug-25 04:33N 39°53' W 075°11'0 0.0
2016-Aug-25 03:33N 39°53' W 075°11'0 0.0
2016-Aug-25 02:33N 39°53' W 075°11'0 0.0
2016-Aug-25 01:33N 39°53' W 075°11'2 2.5
2016-Aug-25 00:33N 39°54' W 075°08'2 1.7
2016-Aug-24 23:33N 39°53' W 075°10'1 1.0
2016-Aug-24 22:33N 39°53' W 075°11'0 0.0
2016-Aug-24 21:33N 39°53' W 075°11'0 0.0
2016-Aug-24 20:33N 39°53' W 075°11'0 0.0
2016-Aug-24 19:33N 39°53' W 075°11'0 0.0
2016-Aug-24 18:34N 39°53' W 075°11'0 0.0
2016-Aug-24 17:33N 39°53' W 075°11'0 0.0
2016-Aug-24 16:34N 39°53' W 075°11'0 0.0
2016-Aug-24 15:34N 39°53' W 075°11'0 0.0
2016-Aug-24 14:34N 39°53' W 075°11'0 0.0
2016-Aug-24 13:33N 39°53' W 075°11'1 0.6
2016-Aug-24 12:33N 39°53' W 075°10'2 1.7
2016-Aug-24 11:33N 39°53' W 075°08'1 0.5
2016-Aug-24 10:34N 39°54' W 075°08'0 0.2
2016-Aug-24 09:34N 39°54' W 075°08'1 1.3
2016-Aug-24 08:34N 39°53' W 075°09'1 1.1
2016-Aug-24 07:33N 39°54' W 075°08'7 6.8
2016-Aug-24 06:34N 39°51' W 075°16'5 2.3
2016-Aug-24 04:33N 39°53' W 075°11'0 0.0
2016-Aug-24 03:34N 39°53' W 075°11'0 0.0
2016-Aug-24 02:33N 39°53' W 075°11'0 0.0
2016-Aug-24 01:33N 39°53' W 075°11'0 0.0
2016-Aug-24 00:33N 39°53' W 075°11'0 0.0
2016-Aug-23 23:33N 39°53' W 075°11'0 0.0
2016-Aug-23 22:33N 39°53' W 075°11'0 0.0
2016-Aug-23 21:33N 39°53' W 075°11'0 0.0
2016-Aug-23 20:33N 39°53' W 075°11'0 0.0
2016-Aug-23 19:33N 39°53' W 075°11'0 0.0
2016-Aug-23 18:33N 39°53' W 075°11'0 0.0
2016-Aug-23 17:34N 39°53' W 075°11'0 0.0
2016-Aug-23 16:33N 39°53' W 075°11'0 0.0
2016-Aug-23 15:33N 39°53' W 075°11'0 0.0
2016-Aug-23 14:33N 39°53' W 075°11'0 0.0
2016-Aug-23 13:33N 39°53' W 075°11'2 1.9
2016-Aug-23 12:33N 39°52' W 075°13'2 2.3
2016-Aug-23 11:33N 39°51' W 075°16'0 0.0
2016-Aug-23 10:33N 39°51' W 075°16'0 0.0
2016-Aug-23 09:33N 39°51' W 075°16'0 0.0
2016-Aug-23 08:33N 39°51' W 075°16'1 1.5
2016-Aug-23 07:33N 39°52' W 075°14'8 7.6
2016-Aug-23 06:33N 39°58' W 075°08'2 1.9
2016-Aug-23 05:33N 39°58' W 075°06'0 0.1
2016-Aug-23 04:33N 39°59' W 075°06'7 6.9
2016-Aug-23 03:33N 39°53' W 075°11'0 0.0
2016-Aug-23 02:33N 39°53' W 075°11'0 0.0
2016-Aug-23 01:34N 39°53' W 075°11'0 0.0
2016-Aug-23 00:33N 39°53' W 075°11'0 0.0
2016-Aug-22 23:33N 39°53' W 075°11'0 0.0
2016-Aug-22 22:33N 39°53' W 075°11'0 0.0
2016-Aug-22 21:33N 39°53' W 075°11'0 0.0
2016-Aug-22 20:33N 39°53' W 075°11'1110.9
2016-Aug-22 19:34N 39°49' W 075°24'0 0.3
2016-Aug-22 18:33N 39°49' W 075°24'1 0.7
2016-Aug-22 17:33N 39°48' W 075°25'1 0.7
2016-Aug-22 16:33N 39°49' W 075°24'0 0.0
2016-Aug-22 15:33N 39°49' W 075°24'0 0.0
2016-Aug-22 14:33N 39°49' W 075°24'0 0.0
2016-Aug-22 13:33N 39°49' W 075°24'0 0.0
2016-Aug-22 12:33N 39°49' W 075°24'7 6.7
2016-Aug-22 11:33N 39°51' W 075°16'0 0.0
2016-Aug-22 10:33N 39°51' W 075°16'0 0.2
2016-Aug-22 09:33N 39°51' W 075°16'0 0.1
2016-Aug-22 08:33N 39°51' W 075°16'0 0.0
2016-Aug-22 07:33N 39°51' W 075°16'0 0.0
2016-Aug-22 06:33N 39°51' W 075°16'0 0.0
2016-Aug-22 05:33N 39°51' W 075°16'0 0.0
2016-Aug-22 04:33N 39°51' W 075°16'0 0.0
2016-Aug-22 03:33N 39°51' W 075°16'0 0.0
2016-Aug-22 02:33N 39°51' W 075°16'1 1.1
2016-Aug-22 01:33N 39°51' W 075°17'7 7.3
2016-Aug-22 00:33N 39°48' W 075°26'0 0.0
2016-Aug-21 23:33N 39°48' W 075°26'3 3.1
2016-Aug-21 22:34N 39°46' W 075°29'3 3.4
2016-Aug-21 21:33N 39°43' W 075°31'0 0.0
2016-Aug-21 20:33N 39°43' W 075°31'0 0.0
2016-Aug-21 19:34N 39°43' W 075°31'0 0.0
2016-Aug-21 18:33N 39°43' W 075°31'0 0.0
2016-Aug-21 17:34N 39°43' W 075°31'0 0.0
2016-Aug-21 16:33N 39°43' W 075°31'1 0.6
2016-Aug-21 15:33N 39°43' W 075°31'1 0.5
2016-Aug-21 14:33N 39°42' W 075°31'0 0.5
2016-Aug-21 13:33N 39°43' W 075°31'0 0.0
2016-Aug-21 12:33N 39°43' W 075°31'0 0.0
2016-Aug-21 11:33N 39°43' W 075°31'0 0.0
2016-Aug-21 10:33N 39°43' W 075°31'0 0.0
2016-Aug-21 09:34N 39°43' W 075°31'8 8.3
2016-Aug-21 08:33N 39°35' W 075°35'0 0.1
2016-Aug-21 07:33N 39°35' W 075°35'2 1.9
2016-Aug-21 06:33N 39°37' W 075°35'7 6.7
2016-Aug-21 05:33N 39°43' W 075°31'0 0.0
2016-Aug-21 04:33N 39°43' W 075°31'0 0.0
2016-Aug-21 03:33N 39°43' W 075°31'0 0.0
2016-Aug-21 02:33N 39°43' W 075°31'0 0.0
2016-Aug-21 01:34N 39°43' W 075°31'0 0.0
2016-Aug-21 00:33N 39°43' W 075°31'0 0.0
2016-Aug-20 23:33N 39°43' W 075°31'0 0.0
2016-Aug-20 22:33N 39°43' W 075°31'0 0.0
2016-Aug-20 21:34N 39°43' W 075°31'8 7.8
2016-Aug-20 20:33N 39°49' W 075°24'9 9.0
2016-Aug-20 19:33N 39°52' W 075°13'2 2.4
2016-Aug-20 18:33N 39°51' W 075°16'0 0.0
2016-Aug-20 17:34N 39°51' W 075°16'0 0.0
2016-Aug-20 16:33N 39°51' W 075°16'0 0.0
2016-Aug-20 15:34N 39°51' W 075°16'0 0.0
2016-Aug-20 14:33N 39°51' W 075°16'0 0.0
2016-Aug-20 13:33N 39°51' W 075°16'0 0.0
2016-Aug-20 12:34N 39°51' W 075°16'0 0.0
2016-Aug-20 11:33N 39°51' W 075°16'4 4.1
2016-Aug-20 10:34N 39°50' W 075°21'3 3.1
2016-Aug-20 09:34N 39°49' W 075°24'8 8.1
2016-Aug-20 08:34N 39°51' W 075°14'0 0.5
2016-Aug-20 07:34N 39°51' W 075°14'0 0.0
2016-Aug-20 06:34N 39°51' W 075°14'2 1.6
2016-Aug-20 05:34N 39°51' W 075°16'0 0.0
2016-Aug-20 04:34N 39°51' W 075°16'4 4.2
2016-Aug-20 03:34N 39°53' W 075°11'0 0.0
2016-Aug-20 02:34N 39°53' W 075°11'0 0.0
2016-Aug-20 01:34N 39°53' W 075°11'0 0.0
2016-Aug-20 00:34N 39°53' W 075°11'0 0.0
2016-Aug-19 23:33N 39°53' W 075°11'0 0.0
2016-Aug-19 22:34N 39°53' W 075°11'0 0.0
2016-Aug-19 21:34N 39°53' W 075°11'0 0.0
2016-Aug-19 20:33N 39°53' W 075°11'0 0.0
2016-Aug-19 19:34N 39°53' W 075°11'2 1.5
2016-Aug-19 18:34N 39°52' W 075°13'0 0.4
2016-Aug-19 17:34N 39°52' W 075°13'1 0.7
2016-Aug-19 16:34N 39°52' W 075°12'1 1.2
2016-Aug-19 15:34N 39°53' W 075°11'0 0.0
2016-Aug-19 14:34N 39°53' W 075°11'0 0.3
2016-Aug-19 13:33N 39°53' W 075°12'0 0.3
2016-Aug-19 12:33N 39°53' W 075°11'0 0.0
2016-Aug-19 11:34N 39°53' W 075°11'0 0.0
2016-Aug-19 10:34N 39°53' W 075°11'0 0.0
2016-Aug-19 09:33N 39°53' W 075°11'0 0.0
2016-Aug-19 08:34N 39°53' W 075°11'  
Track history (hours):
 
Tides and Currents Weather Stations Pressure Air Temp Water Temp Dewpoint Dewpoint Depression Visibility Wind Speed Wind Dir Waves Ship Positions

Madeline

Owner: TUG MADELINE, LLC, NEW CASTLE, DE. More information available from US FCC via Universal Licensing System and Coast Guard Vessel Documentation Center.

Last reported at 2016-Aug-29 08:33 UTC. Time now 2016-Aug-29 08:53 UTC.
Position N 39°51' W 075°16'.

; draft 4.6 m.

Type: Tug. MMSI: 367335830.

Date/timePositionNaut miles runAvg speedWind from/ knotsBaromVisibWave heightAir tempDewpointWater temp
2016-Aug-29 08:33N 39°51' W 075°16'0 0.0
2016-Aug-29 07:33N 39°51' W 075°16'0 0.0
2016-Aug-29 06:33N 39°51' W 075°16'0 0.0
2016-Aug-29 05:33N 39°51' W 075°16'0 0.0
2016-Aug-29 04:33N 39°51' W 075°16'2 2.4
2016-Aug-29 03:33N 39°52' W 075°13'0 0.0
2016-Aug-29 02:33N 39°52' W 075°13'2 2.4
2016-Aug-29 01:33N 39°51' W 075°16'0 0.0
2016-Aug-29 00:33N 39°51' W 075°16'0 0.0
2016-Aug-28 23:33N 39°51' W 075°16'0 0.0
2016-Aug-28 22:33N 39°51' W 075°16'0 0.0
2016-Aug-28 21:33N 39°51' W 075°16'0 0.0
2016-Aug-28 20:33N 39°51' W 075°16'0 0.0
2016-Aug-28 19:33N 39°51' W 075°16'0 0.0
2016-Aug-28 18:33N 39°51' W 075°16'0 0.0
2016-Aug-28 17:33N 39°51' W 075°16'0 0.3
2016-Aug-28 16:33N 39°51' W 075°16'3 2.7
2016-Aug-28 15:33N 39°51' W 075°20'3 3.0
2016-Aug-28 14:33N 39°51' W 075°16'0 0.0
2016-Aug-28 13:33N 39°51' W 075°16'4 4.3
2016-Aug-28 12:33N 39°55' W 075°13'1 1.2
2016-Aug-28 11:34N 39°54' W 075°12'1 0.8
2016-Aug-28 10:33N 39°53' W 075°11'0 0.0
2016-Aug-28 09:33N 39°53' W 075°11'0 0.0
2016-Aug-28 08:33N 39°53' W 075°11'0 0.0
2016-Aug-28 07:33N 39°53' W 075°11'0 0.0
2016-Aug-28 06:33N 39°53' W 075°11'0 0.0
2016-Aug-28 05:33N 39°53' W 075°11'0 0.0
2016-Aug-28 04:33N 39°53' W 075°11'0 0.0
2016-Aug-28 03:33N 39°53' W 075°11'0 0.0
2016-Aug-28 02:34N 39°53' W 075°11'0 0.1
2016-Aug-28 01:33N 39°53' W 075°11'3 2.5
2016-Aug-28 00:33N 39°54' W 075°08'2 2.1
2016-Aug-27 23:33N 39°53' W 075°10'1 1.3
2016-Aug-27 22:33N 39°53' W 075°08'2 2.0
2016-Aug-27 21:33N 39°53' W 075°11'0 0.0
2016-Aug-27 20:33N 39°53' W 075°11'0 0.0
2016-Aug-27 19:33N 39°53' W 075°11'0 0.0
2016-Aug-27 18:33N 39°53' W 075°11'0 0.5
2016-Aug-27 17:33N 39°53' W 075°12'4 4.0
2016-Aug-27 16:33N 39°51' W 075°16'0 0.3
2016-Aug-27 15:33N 39°51' W 075°16'0 0.0
2016-Aug-27 14:33N 39°51' W 075°16'0 0.0
2016-Aug-27 13:33N 39°51' W 075°16'0 0.0
2016-Aug-27 12:33N 39°51' W 075°16'0 0.0
2016-Aug-27 11:33N 39°51' W 075°16'0 0.0
2016-Aug-27 10:33N 39°51' W 075°16'0 0.0
2016-Aug-27 09:33N 39°51' W 075°16'0 0.0
2016-Aug-27 08:33N 39°51' W 075°16'0 0.0
2016-Aug-27 07:33N 39°51' W 075°16'0 0.0
2016-Aug-27 06:33N 39°51' W 075°16'3 1.5
2016-Aug-27 04:33N 39°52' W 075°12'1 1.2
2016-Aug-27 03:33N 39°53' W 075°11'0 0.0
2016-Aug-27 02:33N 39°53' W 075°11'0 0.0
2016-Aug-27 01:33N 39°53' W 075°11'0 0.0
2016-Aug-27 00:33N 39°53' W 075°11'0 0.0
2016-Aug-26 23:33N 39°53' W 075°11'0 0.0
2016-Aug-26 22:33N 39°53' W 075°11'0 0.0
2016-Aug-26 21:33N 39°53' W 075°11'0 0.0
2016-Aug-26 20:33N 39°53' W 075°11'0 0.0
2016-Aug-26 19:33N 39°53' W 075°11'0 0.0
2016-Aug-26 18:33N 39°53' W 075°11'0 0.1
2016-Aug-26 17:33N 39°53' W 075°11'0 0.0
2016-Aug-26 16:34N 39°53' W 075°11'0 0.1
2016-Aug-26 15:33N 39°53' W 075°11'1 1.4
2016-Aug-26 14:33N 39°54' W 075°12'1 1.2
2016-Aug-26 13:33N 39°53' W 075°11'0 0.0
2016-Aug-26 12:33N 39°53' W 075°11'0 0.0
2016-Aug-26 11:33N 39°53' W 075°11'0 0.0
2016-Aug-26 10:33N 39°53' W 075°11'0 0.0
2016-Aug-26 09:33N 39°53' W 075°11'0 0.0
2016-Aug-26 08:33N 39°53' W 075°11'0 0.0
2016-Aug-26 07:33N 39°53' W 075°11'0 0.0
2016-Aug-26 06:33N 39°53' W 075°11'0 0.0
2016-Aug-26 04:33N 39°53' W 075°11'0 0.0
2016-Aug-26 03:33N 39°53' W 075°11'0 0.0
2016-Aug-26 02:33N 39°53' W 075°11'0 0.0
2016-Aug-26 01:33N 39°53' W 075°11'0 0.0
2016-Aug-26 00:33N 39°53' W 075°11'0 0.0
2016-Aug-25 23:34N 39°53' W 075°11'0 0.0
2016-Aug-25 22:33N 39°53' W 075°11'0 0.1
2016-Aug-25 21:33N 39°53' W 075°11'3 3.2
2016-Aug-25 20:33N 39°55' W 075°08'4 3.9
2016-Aug-25 19:33N 39°59' W 075°06'0 0.1
2016-Aug-25 18:33N 39°59' W 075°05'0 0.0
2016-Aug-25 17:33N 39°59' W 075°05'0 0.0
2016-Aug-25 16:33N 39°59' W 075°05'0 0.0
2016-Aug-25 15:33N 39°59' W 075°05'0 0.0
2016-Aug-25 14:33N 39°59' W 075°05'1 1.3
2016-Aug-25 13:33N 39°58' W 075°07'6 6.0
2016-Aug-25 12:34N 39°54' W 075°12'0 0.3
2016-Aug-25 11:33N 39°54' W 075°12'1 0.8
2016-Aug-25 10:33N 39°53' W 075°11'0 0.0
2016-Aug-25 09:33N 39°53' W 075°11'0 0.0
2016-Aug-25 08:33N 39°53' W 075°11'0 0.1
2016-Aug-25 07:34N 39°53' W 075°11'0 0.1
2016-Aug-25 06:33N 39°53' W 075°11'0 0.0
2016-Aug-25 04:33N 39°53' W 075°11'0 0.0
2016-Aug-25 03:33N 39°53' W 075°11'0 0.0
2016-Aug-25 02:33N 39°53' W 075°11'0 0.0
2016-Aug-25 01:33N 39°53' W 075°11'2 2.5
2016-Aug-25 00:33N 39°54' W 075°08'2 1.7
2016-Aug-24 23:33N 39°53' W 075°10'1 1.0
2016-Aug-24 22:33N 39°53' W 075°11'0 0.0
2016-Aug-24 21:33N 39°53' W 075°11'0 0.0
2016-Aug-24 20:33N 39°53' W 075°11'0 0.0
2016-Aug-24 19:33N 39°53' W 075°11'0 0.0
2016-Aug-24 18:34N 39°53' W 075°11'0 0.0
2016-Aug-24 17:33N 39°53' W 075°11'0 0.0
2016-Aug-24 16:34N 39°53' W 075°11'0 0.0
2016-Aug-24 15:34N 39°53' W 075°11'0 0.0
2016-Aug-24 14:34N 39°53' W 075°11'0 0.0
2016-Aug-24 13:33N 39°53' W 075°11'1 0.6
2016-Aug-24 12:33N 39°53' W 075°10'2 1.7
2016-Aug-24 11:33N 39°53' W 075°08'1 0.5
2016-Aug-24 10:34N 39°54' W 075°08'0 0.2
2016-Aug-24 09:34N 39°54' W 075°08'1 1.3
2016-Aug-24 08:34N 39°53' W 075°09'1 1.1
2016-Aug-24 07:33N 39°54' W 075°08'7 6.8
2016-Aug-24 06:34N 39°51' W 075°16'5 2.3
2016-Aug-24 04:33N 39°53' W 075°11'0 0.0
2016-Aug-24 03:34N 39°53' W 075°11'0 0.0
2016-Aug-24 02:33N 39°53' W 075°11'0 0.0
2016-Aug-24 01:33N 39°53' W 075°11'0 0.0
2016-Aug-24 00:33N 39°53' W 075°11'0 0.0
2016-Aug-23 23:33N 39°53' W 075°11'0 0.0
2016-Aug-23 22:33N 39°53' W 075°11'0 0.0
2016-Aug-23 21:33N 39°53' W 075°11'0 0.0
2016-Aug-23 20:33N 39°53' W 075°11'0 0.0
2016-Aug-23 19:33N 39°53' W 075°11'0 0.0
2016-Aug-23 18:33N 39°53' W 075°11'0 0.0
2016-Aug-23 17:34N 39°53' W 075°11'0 0.0
2016-Aug-23 16:33N 39°53' W 075°11'0 0.0
2016-Aug-23 15:33N 39°53' W 075°11'0 0.0
2016-Aug-23 14:33N 39°53' W 075°11'0 0.0
2016-Aug-23 13:33N 39°53' W 075°11'2 1.9
2016-Aug-23 12:33N 39°52' W 075°13'2 2.3
2016-Aug-23 11:33N 39°51' W 075°16'0 0.0
2016-Aug-23 10:33N 39°51' W 075°16'0 0.0
2016-Aug-23 09:33N 39°51' W 075°16'0 0.0
2016-Aug-23 08:33N 39°51' W 075°16'1 1.5
2016-Aug-23 07:33N 39°52' W 075°14'8 7.6
2016-Aug-23 06:33N 39°58' W 075°08'2 1.9
2016-Aug-23 05:33N 39°58' W 075°06'0 0.1
2016-Aug-23 04:33N 39°59' W 075°06'7 6.9
2016-Aug-23 03:33N 39°53' W 075°11'0 0.0
2016-Aug-23 02:33N 39°53' W 075°11'0 0.0
2016-Aug-23 01:34N 39°53' W 075°11'0 0.0
2016-Aug-23 00:33N 39°53' W 075°11'0 0.0
2016-Aug-22 23:33N 39°53' W 075°11'0 0.0
2016-Aug-22 22:33N 39°53' W 075°11'0 0.0
2016-Aug-22 21:33N 39°53' W 075°11'0 0.0
2016-Aug-22 20:33N 39°53' W 075°11'1110.9
2016-Aug-22 19:34N 39°49' W 075°24'0 0.3
2016-Aug-22 18:33N 39°49' W 075°24'1 0.7
2016-Aug-22 17:33N 39°48' W 075°25'1 0.7
2016-Aug-22 16:33N 39°49' W 075°24'0 0.0
2016-Aug-22 15:33N 39°49' W 075°24'0 0.0
2016-Aug-22 14:33N 39°49' W 075°24'0 0.0
2016-Aug-22 13:33N 39°49' W 075°24'0 0.0
2016-Aug-22 12:33N 39°49' W 075°24'7 6.7
2016-Aug-22 11:33N 39°51' W 075°16'0 0.0
2016-Aug-22 10:33N 39°51' W 075°16'0 0.2
2016-Aug-22 09:33N 39°51' W 075°16'0 0.1
2016-Aug-22 08:33N 39°51' W 075°16'0 0.0
2016-Aug-22 07:33N 39°51' W 075°16'0 0.0
2016-Aug-22 06:33N 39°51' W 075°16'0 0.0
2016-Aug-22 05:33N 39°51' W 075°16'0 0.0
2016-Aug-22 04:33N 39°51' W 075°16'0 0.0
2016-Aug-22 03:33N 39°51' W 075°16'0 0.0
2016-Aug-22 02:33N 39°51' W 075°16'1 1.1
2016-Aug-22 01:33N 39°51' W 075°17'7 7.3
2016-Aug-22 00:33N 39°48' W 075°26'0 0.0
2016-Aug-21 23:33N 39°48' W 075°26'3 3.1
2016-Aug-21 22:34N 39°46' W 075°29'3 3.4
2016-Aug-21 21:33N 39°43' W 075°31'0 0.0
2016-Aug-21 20:33N 39°43' W 075°31'0 0.0
2016-Aug-21 19:34N 39°43' W 075°31'0 0.0
2016-Aug-21 18:33N 39°43' W 075°31'0 0.0
2016-Aug-21 17:34N 39°43' W 075°31'0 0.0
2016-Aug-21 16:33N 39°43' W 075°31'1 0.6
2016-Aug-21 15:33N 39°43' W 075°31'1 0.5
2016-Aug-21 14:33N 39°42' W 075°31'0 0.5
2016-Aug-21 13:33N 39°43' W 075°31'0 0.0
2016-Aug-21 12:33N 39°43' W 075°31'0 0.0
2016-Aug-21 11:33N 39°43' W 075°31'0 0.0
2016-Aug-21 10:33N 39°43' W 075°31'0 0.0
2016-Aug-21 09:34N 39°43' W 075°31'8 8.3
2016-Aug-21 08:33N 39°35' W 075°35'0 0.1
2016-Aug-21 07:33N 39°35' W 075°35'2 1.9
2016-Aug-21 06:33N 39°37' W 075°35'7 6.7
2016-Aug-21 05:33N 39°43' W 075°31'0 0.0
2016-Aug-21 04:33N 39°43' W 075°31'0 0.0
2016-Aug-21 03:33N 39°43' W 075°31'0 0.0
2016-Aug-21 02:33N 39°43' W 075°31'0 0.0
2016-Aug-21 01:34N 39°43' W 075°31'0 0.0
2016-Aug-21 00:33N 39°43' W 075°31'0 0.0
2016-Aug-20 23:33N 39°43' W 075°31'0 0.0
2016-Aug-20 22:33N 39°43' W 075°31'0 0.0
2016-Aug-20 21:34N 39°43' W 075°31'8 7.8
2016-Aug-20 20:33N 39°49' W 075°24'9 9.0
2016-Aug-20 19:33N 39°52' W 075°13'2 2.4
2016-Aug-20 18:33N 39°51' W 075°16'0 0.0
2016-Aug-20 17:34N 39°51' W 075°16'0 0.0
2016-Aug-20 16:33N 39°51' W 075°16'0 0.0
2016-Aug-20 15:34N 39°51' W 075°16'0 0.0
2016-Aug-20 14:33N 39°51' W 075°16'0 0.0
2016-Aug-20 13:33N 39°51' W 075°16'0 0.0
2016-Aug-20 12:34N 39°51' W 075°16'0 0.0
2016-Aug-20 11:33N 39°51' W 075°16'4 4.1
2016-Aug-20 10:34N 39°50' W 075°21'3 3.1
2016-Aug-20 09:34N 39°49' W 075°24'8 8.1
2016-Aug-20 08:34N 39°51' W 075°14'0 0.5
2016-Aug-20 07:34N 39°51' W 075°14'0 0.0
2016-Aug-20 06:34N 39°51' W 075°14'2 1.6
2016-Aug-20 05:34N 39°51' W 075°16'0 0.0
2016-Aug-20 04:34N 39°51' W 075°16'4 4.2
2016-Aug-20 03:34N 39°53' W 075°11'0 0.0
2016-Aug-20 02:34N 39°53' W 075°11'0 0.0
2016-Aug-20 01:34N 39°53' W 075°11'0 0.0
2016-Aug-20 00:34N 39°53' W 075°11'0 0.0
2016-Aug-19 23:33N 39°53' W 075°11'0 0.0
2016-Aug-19 22:34N 39°53' W 075°11'0 0.0
2016-Aug-19 21:34N 39°53' W 075°11'0 0.0
2016-Aug-19 20:33N 39°53' W 075°11'0 0.0
2016-Aug-19 19:34N 39°53' W 075°11'2 1.5
2016-Aug-19 18:34N 39°52' W 075°13'0 0.4
2016-Aug-19 17:34N 39°52' W 075°13'1 0.7
2016-Aug-19 16:34N 39°52' W 075°12'1 1.2
2016-Aug-19 15:34N 39°53' W 075°11'0 0.0
2016-Aug-19 14:34N 39°53' W 075°11'0 0.3
2016-Aug-19 13:33N 39°53' W 075°12'0 0.3
2016-Aug-19 12:33N 39°53' W 075°11'0 0.0
2016-Aug-19 11:34N 39°53' W 075°11'0 0.0
2016-Aug-19 10:34N 39°53' W 075°11'0 0.0
2016-Aug-19 09:33N 39°53' W 075°11'0 0.0
2016-Aug-19 08:34N 39°53' W 075°11'  

Dump ship's entire track history